EmailTwitter


Observations de surface / Québec / CYMX

Régions: Québec | Canada | États-Unis | Europe | France | UK | Elsewhere
Station
Affichage
Infos & localisation pour CYMX | Aide pour décoder les METARs

Observations prises le 2017-05-30 à 13H00 UTC à MONTREAL MIRABEL, QB (CYMX)

Etat du ciel: partiellement nuageux.

Température: 14.0 Celsius

Point de rosée: 13.0 Celsius

Humidité relative: 94%

Vents: Est à 7 km/h ou 4 noeuds.

Pression au niveau moyen de la mer: 101.57 kilopascals.

Calage altimétrique: 101.56 kilopascals ou 29.99 pouces de mercure.

Visibilité horizontale: 25.00 milles terrestres ou 40.00 kilomètres.

Hauteur du plafond: 244 mètres ( 800 pieds ).

Observation METAR:

CYMX 301300Z 08004KT 050V120 25SM BKN008 BKN080 14/13 A2999 RMK SF6AC1 SLP157=